Trammel, Kentucky
Current Conditions -  °F | °C
As of 12:53 PM on Thursday 23 Oct 2014 (Local Time) from KBWG Reporting Station
Clear Clear  
Wind Chill: 61°   Ceiling: Unl
Heat Index: 61°   Visibility: 10mi
Dew Point: 42°   Wind: 0mph
Humidity: 50%   Direction: NA
Pressure: 30.19"   Gusts: NA
Location:  36.7794°N, 86.196°W
Report Text: KBWG 231753Z AUTO 00000KT 10SM CLR 16/06 A3019 RMK AO2 SLP223 T01610056 10161 20022 58020
Loading
Personal Weather Stations






























Interactive Weather Map
Tropical Storm Tracking
New forecast layout! Learn more

10-Day Weather Forecast

Advertisements
Track Severe Weather on mobile